sensor_id;sensor_type;location;lat;lon;timestamp;pressure;altitude;pressure_sealevel;temperature;humidity
27144;BME280;14672;50.250;8.312;2023-04-08T00:01:59;99229.66;;;10.22;68.29
27144;BME280;14672;50.250;8.312;2023-04-08T00:04:24;99236.03;;;10.26;68.46
27144;BME280;14672;50.250;8.312;2023-04-08T00:06:50;99229.47;;;10.29;68.57
27144;BME280;14672;50.250;8.312;2023-04-08T00:09:16;99229.09;;;10.27;69.24
27144;BME280;14672;50.250;8.312;2023-04-08T00:11:42;99228.59;;;10.16;69.54
27144;BME280;14672;50.250;8.312;2023-04-08T00:14:08;99236.91;;;10.23;69.78
27144;BME280;14672;50.250;8.312;2023-04-08T00:16:33;99233.84;;;10.18;70.07
27144;BME280;14672;50.250;8.312;2023-04-08T00:18:59;99242.75;;;10.32;69.52
27144;BME280;14672;50.250;8.312;2023-04-08T00:21:25;99236.03;;;10.26;69.38
27144;BME280;14672;50.250;8.312;2023-04-08T00:23:51;99236.03;;;10.26;69.41
27144;BME280;14672;50.250;8.312;2023-04-08T00:26:18;99236.03;;;10.26;69.54
27144;BME280;14672;50.250;8.312;2023-04-08T00:28:44;99232.63;;;10.31;69.61
27144;BME280;14672;50.250;8.312;2023-04-08T00:31:10;99228.66;;;10.29;70.09
27144;BME280;14672;50.250;8.312;2023-04-08T00:33:36;99235.94;;;10.30;69.68
27144;BME280;14672;50.250;8.312;2023-04-08T00:36:01;99235.84;;;10.33;69.32
27144;BME280;14672;50.250;8.312;2023-04-08T00:38:27;99234.25;;;10.32;69.04
27144;BME280;14672;50.250;8.312;2023-04-08T00:40:53;99236.97;;;10.36;69.31
27144;BME280;14672;50.250;8.312;2023-04-08T00:43:19;99232.09;;;10.36;69.06
27144;BME280;14672;50.250;8.312;2023-04-08T00:45:46;99240.06;;;10.42;69.11
27144;BME280;14672;50.250;8.312;2023-04-08T00:48:13;99236.06;;;10.39;69.52
27144;BME280;14672;50.250;8.312;2023-04-08T00:50:39;99239.72;;;10.40;69.50
27144;BME280;14672;50.250;8.312;2023-04-08T00:53:05;99252.56;;;10.44;69.29
27144;BME280;14672;50.250;8.312;2023-04-08T00:55:30;99243.63;;;10.46;69.55
27144;BME280;14672;50.250;8.312;2023-04-08T00:57:57;99243.50;;;10.49;69.40
27144;BME280;14672;50.250;8.312;2023-04-08T01:00:23;99242.72;;;10.49;68.67
27144;BME280;14672;50.250;8.312;2023-04-08T01:08:17;99247.47;;;10.52;68.72
27144;BME280;14672;50.250;8.312;2023-04-08T01:10:44;99253.63;;;10.50;68.96
27144;BME280;14672;50.250;8.312;2023-04-08T01:13:16;99252.94;;;10.46;69.02
27144;BME280;14672;50.250;8.312;2023-04-08T01:15:44;99254.50;;;10.47;68.89
27144;BME280;14672;50.250;8.312;2023-04-08T01:18:12;99252.38;;;10.51;68.65
27144;BME280;14672;50.250;8.312;2023-04-08T01:20:41;99252.28;;;10.55;68.77
27144;BME280;14672;50.250;8.312;2023-04-08T01:24:05;99247.38;;;10.55;68.57
27144;BME280;14672;50.250;8.312;2023-04-08T01:26:34;99254.31;;;10.54;68.98
27144;BME280;14672;50.250;8.312;2023-04-08T01:29:02;99252.28;;;10.55;68.64
27144;BME280;14672;50.250;8.312;2023-04-08T01:31:29;99247.38;;;10.55;68.93
27144;BME280;14672;50.250;8.312;2023-04-08T01:33:56;99248.06;;;10.59;69.02
27144;BME280;14672;50.250;8.312;2023-04-08T01:36:25;99248.06;;;10.59;68.69
27144;BME280;14672;50.250;8.312;2023-04-08T01:38:51;99257.06;;;10.58;68.93
27144;BME280;14672;50.250;8.312;2023-04-08T01:41:17;99252.50;;;10.60;69.06
27144;BME280;14672;50.250;8.312;2023-04-08T01:43:46;99250.13;;;10.59;68.96
27144;BME280;14672;50.250;8.312;2023-04-08T01:46:14;99242.75;;;10.61;68.81
27144;BME280;14672;50.250;8.312;2023-04-08T01:48:41;99245.16;;;10.63;69.19
27144;BME280;14672;50.250;8.312;2023-04-08T01:51:08;99247.63;;;10.61;69.14
27144;BME280;14672;50.250;8.312;2023-04-08T01:53:35;99251.16;;;10.65;68.86
27144;BME280;14672;50.250;8.312;2023-04-08T01:56:08;99236.63;;;10.63;69.09
27144;BME280;14672;50.250;8.312;2023-04-08T01:58:50;99245.38;;;10.68;69.08
27144;BME280;14672;50.250;8.312;2023-04-08T02:01:20;99255.25;;;10.64;69.09
27144;BME280;14672;50.250;8.312;2023-04-08T02:03:48;99255.94;;;10.68;68.80
27144;BME280;14672;50.250;8.312;2023-04-08T02:06:16;99243.34;;;10.69;69.42
27144;BME280;14672;50.250;8.312;2023-04-08T02:08:42;99246.97;;;10.69;69.68
27144;BME280;14672;50.250;8.312;2023-04-08T02:11:08;99248.47;;;10.74;69.88
27144;BME280;14672;50.250;8.312;2023-04-08T02:13:34;99240.28;;;10.76;70.18
27144;BME280;14672;50.250;8.312;2023-04-08T02:16:15;99242.78;;;10.74;70.35
27144;BME280;14672;50.250;8.312;2023-04-08T02:18:49;99238.59;;;10.78;70.22
27144;BME280;14672;50.250;8.312;2023-04-08T02:21:25;99251.09;;;10.81;70.10
27144;BME280;14672;50.250;8.312;2023-04-08T02:23:53;99253.03;;;10.84;70.24
27144;BME280;14672;50.250;8.312;2023-04-08T02:26:20;99248.59;;;10.83;70.61
27144;BME280;14672;50.250;8.312;2023-04-08T02:28:48;99256.69;;;10.84;70.33
27144;BME280;14672;50.250;8.312;2023-04-08T02:31:16;99255.53;;;10.82;70.45
27144;BME280;14672;50.250;8.312;2023-04-08T02:33:43;99264.75;;;10.86;69.90
27144;BME280;14672;50.250;8.312;2023-04-08T02:36:11;99257.03;;;10.87;69.95
27144;BME280;14672;50.250;8.312;2023-04-08T02:38:37;99259.41;;;10.88;69.37
27144;BME280;14672;50.250;8.312;2023-04-08T02:41:03;99260.31;;;10.85;69.15
27144;BME280;14672;50.250;8.312;2023-04-08T02:43:29;99264.50;;;10.80;69.30
27144;BME280;14672;50.250;8.312;2023-04-08T02:45:59;99266.91;;;10.82;69.50
27144;BME280;14672;50.250;8.312;2023-04-08T02:48:28;99261.91;;;10.86;69.34
27144;BME280;14672;50.250;8.312;2023-04-08T02:50:54;99264.41;;;10.84;69.33
27144;BME280;14672;50.250;8.312;2023-04-08T02:53:22;99261.56;;;10.84;69.47
27144;BME280;14672;50.250;8.312;2023-04-08T02:55:48;99266.91;;;10.82;69.51
27144;BME280;14672;50.250;8.312;2023-04-08T02:58:14;99272.50;;;10.86;69.33
27144;BME280;14672;50.250;8.312;2023-04-08T03:00:40;99269.28;;;10.83;69.34
27144;BME280;14672;50.250;8.312;2023-04-08T03:03:06;99272.69;;;10.78;70.00
27144;BME280;14672;50.250;8.312;2023-04-08T03:05:32;99276.81;;;10.90;69.48
27144;BME280;14672;50.250;8.312;2023-04-08T03:07:58;99265.78;;;10.92;69.72
27144;BME280;14672;50.250;8.312;2023-04-08T03:10:24;99268.88;;;10.98;69.22
27144;BME280;14672;50.250;8.312;2023-04-08T03:12:50;99273.88;;;10.94;69.99
27144;BME280;14672;50.250;8.312;2023-04-08T03:15:16;99264.88;;;10.95;69.64
27144;BME280;14672;50.250;8.312;2023-04-08T03:17:42;99272.28;;;10.93;70.35
27144;BME280;14672;50.250;8.312;2023-04-08T03:20:08;99267.84;;;11.04;69.71
27144;BME280;14672;50.250;8.312;2023-04-08T03:22:35;99277.84;;;10.96;69.57
27144;BME280;14672;50.250;8.312;2023-04-08T03:25:01;99280.00;;;10.92;69.39
27144;BME280;14672;50.250;8.312;2023-04-08T03:27:27;99282.28;;;10.97;69.19
27144;BME280;14672;50.250;8.312;2023-04-08T03:29:53;99281.59;;;10.93;69.26
27144;BME280;14672;50.250;8.312;2023-04-08T03:32:19;99284.34;;;10.97;69.35
27144;BME280;14672;50.250;8.312;2023-04-08T03:34:45;99287.97;;;10.97;69.15
27144;BME280;14672;50.250;8.312;2023-04-08T03:37:11;99286.84;;;10.95;68.96
27144;BME280;14672;50.250;8.312;2023-04-08T03:39:37;99293.88;;;10.90;69.02
27144;BME280;14672;50.250;8.312;2023-04-08T03:42:03;99293.50;;;10.88;69.01
27144;BME280;14672;50.250;8.312;2023-04-08T03:44:29;99292.81;;;10.84;68.89
27144;BME280;14672;50.250;8.312;2023-04-08T03:46:54;99287.13;;;10.84;68.83
27144;BME280;14672;50.250;8.312;2023-04-08T03:49:20;99293.19;;;10.86;68.59
27144;BME280;14672;50.250;8.312;2023-04-08T03:51:46;99295.56;;;10.88;69.06
27144;BME280;14672;50.250;8.312;2023-04-08T03:54:12;99298.50;;;10.84;69.00
27144;BME280;14672;50.250;8.312;2023-04-08T03:56:37;99296.81;;;10.87;68.87
27144;BME280;14672;50.250;8.312;2023-04-08T03:59:03;99299.09;;;10.92;68.50
27144;BME280;14672;50.250;8.312;2023-04-08T04:01:29;99302.59;;;10.83;68.75
27144;BME280;14672;50.250;8.312;2023-04-08T04:03:57;99299.19;;;10.88;68.57
27144;BME280;14672;50.250;8.312;2023-04-08T04:06:23;99294.97;;;10.80;68.81
27144;BME280;14672;50.250;8.312;2023-04-08T04:08:49;99300.31;;;10.78;69.33
27144;BME280;14672;50.250;8.312;2023-04-08T04:11:15;99289.50;;;10.73;68.57
27144;BME280;14672;50.250;8.312;2023-04-08T04:13:41;99295.44;;;10.78;69.51
27144;BME280;14672;50.250;8.312;2023-04-08T04:16:06;99306.88;;;10.75;69.37
27144;BME280;14672;50.250;8.312;2023-04-08T04:18:32;99307.56;;;10.79;69.17
27144;BME280;14672;50.250;8.312;2023-04-08T04:20:59;99308.25;;;10.70;69.25
27144;BME280;14672;50.250;8.312;2023-04-08T04:23:25;99312.78;;;10.68;68.88
27144;BME280;14672;50.250;8.312;2023-04-08T04:25:50;99308.81;;;10.65;69.25
27144;BME280;14672;50.250;8.312;2023-04-08T04:28:16;99312.97;;;10.61;68.95
27144;BME280;14672;50.250;8.312;2023-04-08T04:30:42;99312.28;;;10.57;69.11
27144;BME280;14672;50.250;8.312;2023-04-08T04:33:08;99311.28;;;10.63;69.34
27144;BME280;14672;50.250;8.312;2023-04-08T04:35:33;99314.38;;;10.69;68.86
27144;BME280;14672;50.250;8.312;2023-04-08T04:37:59;99317.06;;;10.60;69.32
27144;BME280;14672;50.250;8.312;2023-04-08T04:40:26;99314.22;;;10.60;68.88
27144;BME280;14672;50.250;8.312;2023-04-08T04:42:51;99312.72;;;10.55;69.73
27144;BME280;14672;50.250;8.312;2023-04-08T04:45:17;99323.84;;;10.50;69.39
27144;BME280;14672;50.250;8.312;2023-04-08T04:47:43;99313.53;;;10.56;69.55
27144;BME280;14672;50.250;8.312;2023-04-08T04:50:09;99318.06;;;10.53;69.15
27144;BME280;14672;50.250;8.312;2023-04-08T04:52:35;99326.69;;;10.50;69.44
27144;BME280;14672;50.250;8.312;2023-04-08T04:55:01;99321.81;;;10.50;68.95
27144;BME280;14672;50.250;8.312;2023-04-08T04:57:27;99317.69;;;10.51;69.20
27144;BME280;14672;50.250;8.312;2023-04-08T04:59:53;99323.16;;;10.46;69.07
27144;BME280;14672;50.250;8.312;2023-04-08T05:02:18;99329.03;;;10.39;69.06
27144;BME280;14672;50.250;8.312;2023-04-08T05:04:45;99329.34;;;10.41;69.07
27144;BME280;14672;50.250;8.312;2023-04-08T05:07:10;99324.75;;;10.47;69.03
27144;BME280;14672;50.250;8.312;2023-04-08T05:09:36;99328.28;;;10.51;68.75
27144;BME280;14672;50.250;8.312;2023-04-08T05:12:02;99334.50;;;10.46;69.71
27144;BME280;14672;50.250;8.312;2023-04-08T05:14:29;99340.19;;;10.46;69.20
27144;BME280;14672;50.250;8.312;2023-04-08T05:16:55;99334.13;;;10.44;69.31
27144;BME280;14672;50.250;8.312;2023-04-08T05:19:22;99337.97;;;10.37;68.70
27144;BME280;14672;50.250;8.312;2023-04-08T05:21:47;99333.28;;;10.47;69.11
27144;BME280;14672;50.250;8.312;2023-04-08T05:24:13;99338.69;;;10.41;69.40
27144;BME280;14672;50.250;8.312;2023-04-08T05:26:39;99336.97;;;10.44;69.18
27144;BME280;14672;50.250;8.312;2023-04-08T05:29:05;99342.31;;;10.42;68.86
27144;BME280;14672;50.250;8.312;2023-04-08T05:31:31;99342.56;;;10.47;68.81
27144;BME280;14672;50.250;8.312;2023-04-08T05:33:56;99344.25;;;10.45;68.47
27144;BME280;14672;50.250;8.312;2023-04-08T05:36:22;99346.16;;;10.35;69.27
27144;BME280;14672;50.250;8.312;2023-04-08T05:38:48;99351.28;;;10.40;68.83
27144;BME280;14672;50.250;8.312;2023-04-08T05:41:14;99351.28;;;10.40;69.32
27144;BME280;14672;50.250;8.312;2023-04-08T05:43:40;99354.38;;;10.46;68.50
27144;BME280;14672;50.250;8.312;2023-04-08T05:46:07;99356.97;;;10.40;68.81
27144;BME280;14672;50.250;8.312;2023-04-08T05:48:33;99354.59;;;10.39;68.74
27144;BME280;14672;50.250;8.312;2023-04-08T05:50:59;99357.75;;;10.41;68.06
27144;BME280;14672;50.250;8.312;2023-04-08T05:53:25;99352.97;;;10.38;67.94
27144;BME280;14672;50.250;8.312;2023-04-08T05:55:51;99359.38;;;10.42;68.45
27144;BME280;14672;50.250;8.312;2023-04-08T05:58:17;99364.34;;;10.38;68.17
27144;BME280;14672;50.250;8.312;2023-04-08T06:00:42;99366.72;;;10.39;68.24
27144;BME280;14672;50.250;8.312;2023-04-08T06:03:08;99368.41;;;10.36;68.43
27144;BME280;14672;50.250;8.312;2023-04-08T06:05:34;99370.03;;;10.38;68.50
27144;BME280;14672;50.250;8.312;2023-04-08T06:08:00;99369.50;;;10.43;68.74
27144;BME280;14672;50.250;8.312;2023-04-08T06:10:26;99369.13;;;10.41;67.98
27144;BME280;14672;50.250;8.312;2023-04-08T06:12:51;99372.50;;;10.35;67.72
27144;BME280;14672;50.250;8.312;2023-04-08T06:15:17;99376.03;;;10.40;68.45
27144;BME280;14672;50.250;8.312;2023-04-08T06:17:43;99383.31;;;10.41;68.70
27144;BME280;14672;50.250;8.312;2023-04-08T06:20:09;99381.00;;;10.35;68.48
27144;BME280;14672;50.250;8.312;2023-04-08T06:22:35;99385.94;;;10.35;68.58
27144;BME280;14672;50.250;8.312;2023-04-08T06:25:01;99385.72;;;10.42;68.23
27144;BME280;14672;50.250;8.312;2023-04-08T06:27:27;99387.31;;;10.43;67.79
27144;BME280;14672;50.250;8.312;2023-04-08T06:29:53;99390.84;;;10.47;67.51
27144;BME280;14672;50.250;8.312;2023-04-08T06:32:20;99388.47;;;10.46;67.36
27144;BME280;14672;50.250;8.312;2023-04-08T06:34:47;99390.09;;;10.47;67.33
27144;BME280;14672;50.250;8.312;2023-04-08T06:37:13;99392.13;;;10.46;67.05
27144;BME280;14672;50.250;8.312;2023-04-08T06:39:39;99391.41;;;10.42;67.24
27144;BME280;14672;50.250;8.312;2023-04-08T06:42:05;99398.22;;;10.45;67.98
27144;BME280;14672;50.250;8.312;2023-04-08T06:44:31;99396.09;;;10.49;67.53
27144;BME280;14672;50.250;8.312;2023-04-08T06:46:57;99396.81;;;10.53;67.29
27144;BME280;14672;50.250;8.312;2023-04-08T06:49:23;99401.69;;;10.52;67.15
27144;BME280;14672;50.250;8.312;2023-04-08T06:51:49;99403.56;;;10.59;66.90
27144;BME280;14672;50.250;8.312;2023-04-08T06:54:14;99401.06;;;10.61;66.82
27144;BME280;14672;50.250;8.312;2023-04-08T06:56:40;99406.41;;;10.59;66.89
27144;BME280;14672;50.250;8.312;2023-04-08T06:59:06;99410.13;;;10.56;67.30
27144;BME280;14672;50.250;8.312;2023-04-08T07:01:32;99414.38;;;10.64;66.76
27144;BME280;14672;50.250;8.312;2023-04-08T07:03:57;99416.41;;;10.63;66.93
27144;BME280;14672;50.250;8.312;2023-04-08T07:06:24;99414.25;;;10.67;66.46
27144;BME280;14672;50.250;8.312;2023-04-08T07:08:50;99414.53;;;10.73;66.61
27144;BME280;14672;50.250;8.312;2023-04-08T07:11:16;99415.06;;;10.68;66.65
27144;BME280;14672;50.250;8.312;2023-04-08T07:13:42;99414.53;;;10.73;66.29
27144;BME280;14672;50.250;8.312;2023-04-08T07:16:08;99424.09;;;10.79;66.45
27144;BME280;14672;50.250;8.312;2023-04-08T07:18:33;99429.44;;;10.77;66.49
27144;BME280;14672;50.250;8.312;2023-04-08T07:21:00;99419.69;;;10.78;66.70
27144;BME280;14672;50.250;8.312;2023-04-08T07:23:26;99426.31;;;10.88;66.63
27144;BME280;14672;50.250;8.312;2023-04-08T07:25:52;99417.78;;;10.88;66.60
27144;BME280;14672;50.250;8.312;2023-04-08T07:28:19;99420.19;;;10.89;66.43
27144;BME280;14672;50.250;8.312;2023-04-08T07:30:45;99415.09;;;10.97;66.67
27144;BME280;14672;50.250;8.312;2023-04-08T07:33:11;99418.38;;;10.95;66.46
27144;BME280;14672;50.250;8.312;2023-04-08T07:35:37;99420.25;;;11.02;65.71
27144;BME280;14672;50.250;8.312;2023-04-08T07:38:03;99429.69;;;10.99;65.92
27144;BME280;14672;50.250;8.312;2023-04-08T07:40:29;99424.94;;;11.08;66.02
27144;BME280;14672;50.250;8.312;2023-04-08T07:42:55;99430.88;;;11.14;66.03
27144;BME280;14672;50.250;8.312;2023-04-08T07:45:21;99424.03;;;11.11;66.15
27144;BME280;14672;50.250;8.312;2023-04-08T07:47:47;99428.47;;;11.12;66.06
27144;BME280;14672;50.250;8.312;2023-04-08T07:50:13;99427.47;;;11.19;66.17
27144;BME280;14672;50.250;8.312;2023-04-08T07:52:39;99427.72;;;11.24;65.90
27144;BME280;14672;50.250;8.312;2023-04-08T07:55:05;99436.34;;;11.21;65.53
27144;BME280;14672;50.250;8.312;2023-04-08T07:57:31;99440.34;;;11.23;65.72
27144;BME280;14672;50.250;8.312;2023-04-08T07:59:57;99439.78;;;11.28;65.02
27144;BME280;14672;50.250;8.312;2023-04-08T08:02:23;99438.19;;;11.27;65.32
27144;BME280;14672;50.250;8.312;2023-04-08T08:04:49;99441.13;;;11.24;64.82
27144;BME280;14672;50.250;8.312;2023-04-08T08:07:14;99442.53;;;11.32;64.52
27144;BME280;14672;50.250;8.312;2023-04-08T08:09:41;99441.72;;;11.31;64.47
27144;BME280;14672;50.250;8.312;2023-04-08T08:12:06;99444.84;;;11.37;64.72
27144;BME280;14672;50.250;8.312;2023-04-08T08:14:32;99437.47;;;11.52;64.58
27144;BME280;14672;50.250;8.312;2023-04-08T08:16:58;99451.91;;;11.45;64.03
27144;BME280;14672;50.250;8.312;2023-04-08T08:19:24;99454.50;;;11.40;64.66
27144;BME280;14672;50.250;8.312;2023-04-08T08:21:50;99451.38;;;11.50;64.36
27144;BME280;14672;50.250;8.312;2023-04-08T08:24:17;99460.19;;;11.40;64.85
27144;BME280;14672;50.250;8.312;2023-04-08T08:26:43;99457.84;;;11.51;64.42
27144;BME280;14672;50.250;8.312;2023-04-08T08:29:14;99456.25;;;11.50;63.79
27144;BME280;14672;50.250;8.312;2023-04-08T08:31:40;99456.09;;;11.41;63.92
27144;BME280;14672;50.250;8.312;2023-04-08T08:34:06;99460.19;;;11.40;63.50
27144;BME280;14672;50.250;8.312;2023-04-08T08:36:32;99459.97;;;11.47;63.08
27144;BME280;14672;50.250;8.312;2023-04-08T08:38:57;99464.56;;;11.57;63.39
27144;BME280;14672;50.250;8.312;2023-04-08T08:41:23;99474.34;;;11.56;63.07
27144;BME280;14672;50.250;8.312;2023-04-08T08:43:49;99472.25;;;11.44;62.93
27144;BME280;14672;50.250;8.312;2023-04-08T08:46:16;99475.25;;;11.53;62.17
27144;BME280;14672;50.250;8.312;2023-04-08T08:48:44;99471.97;;;11.54;62.41
27144;BME280;14672;50.250;8.312;2023-04-08T08:51:11;99478.44;;;11.55;62.44
27144;BME280;14672;50.250;8.312;2023-04-08T08:53:37;99469.03;;;11.58;62.40
27144;BME280;14672;50.250;8.312;2023-04-08T08:56:05;99475.72;;;11.51;61.40
27144;BME280;14672;50.250;8.312;2023-04-08T08:58:33;99471.97;;;11.54;61.42
27144;BME280;14672;50.250;8.312;2023-04-08T09:00:59;99481.97;;;11.46;61.10
27144;BME280;14672;50.250;8.312;2023-04-08T09:03:27;99478.91;;;11.53;61.14
27144;BME280;14672;50.250;8.312;2023-04-08T09:05:57;99489.22;;;11.47;61.69
27144;BME280;14672;50.250;8.312;2023-04-08T09:08:35;99485.03;;;11.52;61.96
27144;BME280;14672;50.250;8.312;2023-04-08T09:11:18;99491.44;;;11.56;62.28
27144;BME280;14672;50.250;8.312;2023-04-08T09:13:47;99485.88;;;11.65;62.39
27144;BME280;14672;50.250;8.312;2023-04-08T09:16:17;99485.53;;;11.63;62.45
27144;BME280;14672;50.250;8.312;2023-04-08T09:18:46;99488.94;;;11.58;62.35
27144;BME280;14672;50.250;8.312;2023-04-08T09:21:16;99492.81;;;11.64;62.67
27144;BME280;14672;50.250;8.312;2023-04-08T09:26:19;99497.09;;;11.72;62.75
27144;BME280;14672;50.250;8.312;2023-04-08T09:29:04;99496.28;;;11.71;62.66
27144;BME280;14672;50.250;8.312;2023-04-08T09:31:33;99503.03;;;11.77;62.20
27144;BME280;14672;50.250;8.312;2023-04-08T09:34:13;99504.72;;;11.75;62.43
27144;BME280;14672;50.250;8.312;2023-04-08T09:36:41;99501.22;;;11.84;61.96
27144;BME280;14672;50.250;8.312;2023-04-08T09:39:07;99507.97;;;11.90;61.60
27144;BME280;14672;50.250;8.312;2023-04-08T09:41:36;99504.09;;;11.96;61.48
27144;BME280;14672;50.250;8.312;2023-04-08T09:44:08;99500.00;;;11.97;61.89
27144;BME280;14672;50.250;8.312;2023-04-08T09:46:54;99501.25;;;11.96;62.09
27144;BME280;14672;50.250;8.312;2023-04-08T09:49:45;99498.66;;;12.02;61.71
27144;BME280;14672;50.250;8.312;2023-04-08T09:52:31;99500.25;;;12.15;61.46
27144;BME280;14672;50.250;8.312;2023-04-08T09:55:07;99485.75;;;12.22;60.87
27144;BME280;14672;50.250;8.312;2023-04-08T09:58:10;99493.06;;;12.23;61.14
27144;BME280;14672;50.250;8.312;2023-04-08T10:00:41;99495.22;;;12.19;61.67
27144;BME280;14672;50.250;8.312;2023-04-08T10:03:32;99495.59;;;12.21;60.60
27144;BME280;14672;50.250;8.312;2023-04-08T10:06:02;99501.16;;;12.25;60.51
27144;BME280;14672;50.250;8.312;2023-04-08T10:08:29;99500.81;;;12.36;60.43
27144;BME280;14672;50.250;8.312;2023-04-08T10:10:56;99502.66;;;12.30;59.92
27144;BME280;14672;50.250;8.312;2023-04-08T10:13:23;99506.19;;;12.34;59.63
27144;BME280;14672;50.250;8.312;2023-04-08T10:15:50;99499.34;;;12.31;59.75
27144;BME280;14672;50.250;8.312;2023-04-08T10:20:45;99495.47;;;12.38;59.99
27144;BME280;14672;50.250;8.312;2023-04-08T10:23:15;99499.78;;;12.42;60.37
27144;BME280;14672;50.250;8.312;2023-04-08T10:25:48;99496.50;;;12.44;60.24
27144;BME280;14672;50.250;8.312;2023-04-08T10:33:16;99495.56;;;12.59;60.63
27144;BME280;14672;50.250;8.312;2023-04-08T10:35:48;99501.03;;;12.66;61.47
27144;BME280;14672;50.250;8.312;2023-04-08T10:38:15;99493.50;;;12.73;60.94
27144;BME280;14672;50.250;8.312;2023-04-08T10:40:43;99490.41;;;12.67;59.90
27144;BME280;14672;50.250;8.312;2023-04-08T10:43:12;99499.50;;;12.87;60.80
27144;BME280;14672;50.250;8.312;2023-04-08T10:45:43;99494.38;;;12.82;60.12
27144;BME280;14672;50.250;8.312;2023-04-08T10:48:22;99495.97;;;12.83;59.66
27144;BME280;14672;50.250;8.312;2023-04-08T10:51:00;99499.13;;;12.98;60.16
27144;BME280;14672;50.250;8.312;2023-04-08T10:53:32;99495.72;;;13.03;60.22
27144;BME280;14672;50.250;8.312;2023-04-08T10:56:13;99493.44;;;13.10;59.25
27144;BME280;14672;50.250;8.312;2023-04-08T10:58:54;99496.16;;;13.14;60.08
27144;BME280;14672;50.250;8.312;2023-04-08T11:01:24;99483.91;;;13.26;59.74
27144;BME280;14672;50.250;8.312;2023-04-08T11:03:50;99481.84;;;13.27;57.23
27144;BME280;14672;50.250;8.312;2023-04-08T11:06:17;99486.53;;;13.33;55.09
27144;BME280;14672;50.250;8.312;2023-04-08T11:08:44;99487.28;;;13.34;54.17
27144;BME280;14672;50.250;8.312;2023-04-08T11:11:10;99486.63;;;13.30;54.02
27144;BME280;14672;50.250;8.312;2023-04-08T11:13:40;99493.69;;;13.38;53.79
27144;BME280;14672;50.250;8.312;2023-04-08T11:16:07;99492.50;;;13.48;53.41
27144;BME280;14672;50.250;8.312;2023-04-08T11:18:36;99489.31;;;13.46;54.09
27144;BME280;14672;50.250;8.312;2023-04-08T11:21:02;99491.56;;;13.51;54.19
27144;BME280;14672;50.250;8.312;2023-04-08T11:23:28;99486.34;;;13.49;53.67
27144;BME280;14672;50.250;8.312;2023-04-08T11:25:55;99488.84;;;13.47;53.60
27144;BME280;14672;50.250;8.312;2023-04-08T11:28:22;99491.66;;;13.60;53.95
27144;BME280;14672;50.250;8.312;2023-04-08T11:30:49;99490.72;;;13.63;53.50
27144;BME280;14672;50.250;8.312;2023-04-08T11:33:16;99479.88;;;13.58;53.38
27144;BME280;14672;50.250;8.312;2023-04-08T11:35:43;99486.00;;;13.69;53.30
27144;BME280;14672;50.250;8.312;2023-04-08T11:38:09;99485.59;;;13.80;53.36
27144;BME280;14672;50.250;8.312;2023-04-08T11:40:36;99479.75;;;13.83;53.62
27144;BME280;14672;50.250;8.312;2023-04-08T11:43:12;99478.81;;;13.86;53.56
27144;BME280;14672;50.250;8.312;2023-04-08T11:45:41;99474.03;;;13.83;52.81
27144;BME280;14672;50.250;8.312;2023-04-08T11:48:12;99474.03;;;13.83;52.13
27144;BME280;14672;50.250;8.312;2023-04-08T11:50:39;99469.13;;;13.84;51.55
27144;BME280;14672;50.250;8.312;2023-04-08T11:53:20;99469.22;;;14.02;51.98
27144;BME280;14672;50.250;8.312;2023-04-08T11:55:47;99477.34;;;14.03;51.07
27144;BME280;14672;50.250;8.312;2023-04-08T11:58:14;99473.22;;;14.04;50.86
27144;BME280;14672;50.250;8.312;2023-04-08T12:00:40;99474.25;;;14.20;50.62
27144;BME280;14672;50.250;8.312;2023-04-08T12:03:07;99476.50;;;14.25;50.22
27144;BME280;14672;50.250;8.312;2023-04-08T12:05:33;99478.56;;;14.33;50.31
27144;BME280;14672;50.250;8.312;2023-04-08T12:07:58;99466.47;;;14.51;50.43
27144;BME280;14672;50.250;8.312;2023-04-08T12:10:24;99475.22;;;14.66;50.04
27144;BME280;14672;50.250;8.312;2023-04-08T12:12:50;99479.84;;;14.63;51.50
27144;BME280;14672;50.250;8.312;2023-04-08T12:15:16;99469.50;;;14.56;50.72
27144;BME280;14672;50.250;8.312;2023-04-08T12:17:43;99468.88;;;14.62;50.85
27144;BME280;14672;50.250;8.312;2023-04-08T12:20:10;99464.13;;;14.68;50.75
27144;BME280;14672;50.250;8.312;2023-04-08T12:22:37;99468.91;;;14.71;51.34
27144;BME280;14672;50.250;8.312;2023-04-08T12:25:04;99466.22;;;14.76;51.31
27144;BME280;14672;50.250;8.312;2023-04-08T12:27:31;99463.97;;;14.71;50.71
27144;BME280;14672;50.250;8.312;2023-04-08T12:30:01;99459.84;;;14.81;50.51
27144;BME280;14672;50.250;8.312;2023-04-08T12:32:28;99454.31;;;14.87;50.35
27144;BME280;14672;50.250;8.312;2023-04-08T12:34:54;99456.22;;;14.81;50.51
27144;BME280;14672;50.250;8.312;2023-04-08T12:37:20;99449.41;;;14.96;51.00
27144;BME280;14672;50.250;8.312;2023-04-08T12:39:46;99455.13;;;15.05;51.07
27144;BME280;14672;50.250;8.312;2023-04-08T12:42:13;99457.19;;;14.87;50.40
27144;BME280;14672;50.250;8.312;2023-04-08T12:44:39;99452.41;;;14.84;50.70
27144;BME280;14672;50.250;8.312;2023-04-08T12:47:05;99446.22;;;14.94;51.09
27144;BME280;14672;50.250;8.312;2023-04-08T12:49:30;99456.09;;;15.02;51.24
27144;BME280;14672;50.250;8.312;2023-04-08T12:51:56;99452.28;;;14.96;51.19
27144;BME280;14672;50.250;8.312;2023-04-08T12:54:22;99457.69;;;15.03;51.75
27144;BME280;14672;50.250;8.312;2023-04-08T12:56:48;99451.34;;;15.09;51.41
27144;BME280;14672;50.250;8.312;2023-04-08T12:59:14;99452.59;;;15.08;51.59
27144;BME280;14672;50.250;8.312;2023-04-08T13:01:40;99449.25;;;15.18;52.62
27144;BME280;14672;50.250;8.312;2023-04-08T13:04:06;99450.72;;;15.32;52.83
27144;BME280;14672;50.250;8.312;2023-04-08T13:06:32;99444.97;;;15.41;52.43
27144;BME280;14672;50.250;8.312;2023-04-08T13:08:58;99446.56;;;15.42;51.60
27144;BME280;14672;50.250;8.312;2023-04-08T13:11:24;99448.16;;;15.43;51.27
27144;BME280;14672;50.250;8.312;2023-04-08T13:13:49;99445.59;;;15.45;51.65
27144;BME280;14672;50.250;8.312;2023-04-08T13:16:15;99436.88;;;15.39;52.06
27144;BME280;14672;50.250;8.312;2023-04-08T13:18:42;99453.41;;;15.44;52.21